Ute, Iowa
Current Conditions -  °F | °C
As of 5:55 PM on Saturday 22 Nov 2014 (Local Time) from KDNS Reporting Station
Clear Clear  
Wind Chill: 42°   Ceiling: Unl
Heat Index: 48°   Visibility: 8mi
Dew Point: 48°   Wind: 17mph
Humidity: 100%   Direction: 190°S
Pressure: 29.58"   Gusts: 23mph
Location:  42.05°N, 95.71°W
Report Text: KDNS 222355Z AUTO 19015G20KT 8SM CLR 09/09 A2958 RMK AO2
Loading
Personal Weather Stations






























Interactive Weather Map New forecast layout! Learn more

10-Day Weather Forecast

Advertisements
Track Severe Weather on mobile